Time;durP1;ratioP1;P1;durP2;ratioP2;P2;SDS_P1;SDS_P2;PMS_P1;PMS_P2;Temp;Humidity;BMP_temperature;BMP_pressure;BME280_temperature;BME280_humidity;BME280_pressure;Samples;Min_cycle;Max_cycle;Signal;HPM_P1;HPM_P2
2023/09/03 00:00:28;;;;;;;10.05;6.35;;;15.40;99.90;;;;;;4971247;28;20121;-83
2023/09/03 00:02:54;;;;;;;10.68;7.50;;;15.30;99.90;;;;;;4973850;28;20030;-83
2023/09/03 00:05:20;;;;;;;10.60;7.47;;;15.40;99.90;;;;;;4971333;28;20047;-83
2023/09/03 00:07:46;;;;;;;11.18;7.63;;;15.30;99.90;;;;;;4980003;28;20050;-83
2023/09/03 00:10:12;;;;;;;10.48;7.68;;;15.30;99.90;;;;;;4986829;28;20402;-82
2023/09/03 00:12:38;;;;;;;13.15;8.88;;;15.20;99.90;;;;;;4972144;28;20038;-83
2023/09/03 00:15:05;;;;;;;12.18;7.43;;;15.20;99.90;;;;;;4982415;28;20494;-83
2023/09/03 00:17:32;;;;;;;8.68;6.45;;;15.10;99.90;;;;;;4977452;28;20046;-83
2023/09/03 00:19:58;;;;;;;9.93;7.82;;;15.00;99.90;;;;;;4980304;28;20054;-83
2023/09/03 00:22:23;;;;;;;12.07;7.00;;;14.90;99.90;;;;;;4982131;28;20057;-82
2023/09/03 00:24:49;;;;;;;11.80;8.43;;;14.90;99.90;;;;;;4977214;28;20139;-82
2023/09/03 00:27:15;;;;;;;11.65;7.35;;;14.90;99.90;;;;;;4979243;28;20047;-82
2023/09/03 00:29:41;;;;;;;9.68;6.70;;;14.80;99.90;;;;;;4959419;28;20100;-82
2023/09/03 00:32:07;;;;;;;13.32;9.95;;;14.80;99.90;;;;;;4980888;28;20678;-83
2023/09/03 00:34:32;;;;;;;11.80;8.98;;;14.80;99.90;;;;;;4980918;28;20061;-83
2023/09/03 00:36:59;;;;;;;11.82;9.00;;;14.80;99.90;;;;;;4974273;28;20051;-82
2023/09/03 00:39:27;;;;;;;13.90;10.13;;;14.80;99.90;;;;;;4978327;28;20389;-83
2023/09/03 00:41:53;;;;;;;14.20;11.13;;;14.70;99.90;;;;;;4985469;28;20482;-83
2023/09/03 00:44:19;;;;;;;12.65;9.57;;;14.80;99.90;;;;;;4980136;28;20049;-82
2023/09/03 00:46:45;;;;;;;14.15;8.90;;;14.80;99.90;;;;;;4978833;28;20393;-82
2023/09/03 00:49:14;;;;;;;13.75;11.15;;;14.70;99.90;;;;;;4978580;28;20125;-83
2023/09/03 00:51:41;;;;;;;11.82;8.05;;;14.70;99.90;;;;;;4956065;28;20043;-83
2023/09/03 00:54:06;;;;;;;11.00;7.72;;;14.70;99.90;;;;;;4974314;28;20038;-82
2023/09/03 00:56:32;;;;;;;10.07;8.05;;;14.70;99.90;;;;;;4990116;28;20101;-82
2023/09/03 00:59:01;;;;;;;11.57;9.30;;;14.70;99.90;;;;;;4989804;28;20042;-83
2023/09/03 01:01:29;;;;;;;15.05;10.77;;;14.70;99.90;;;;;;4979913;28;20470;-84
2023/09/03 01:03:56;;;;;;;9.85;7.30;;;14.60;99.90;;;;;;4955921;28;20073;-82
2023/09/03 01:06:22;;;;;;;12.45;7.72;;;14.60;99.90;;;;;;4969634;28;20043;-83
2023/09/03 01:08:47;;;;;;;12.10;7.80;;;14.60;99.90;;;;;;4973461;28;20512;-82
2023/09/03 01:11:19;;;;;;;12.13;9.57;;;14.60;99.90;;;;;;4978502;28;20517;-82
2023/09/03 01:13:49;;;;;;;12.13;9.80;;;14.60;99.90;;;;;;4981431;28;20049;-81
2023/09/03 01:16:27;;;;;;;11.10;8.20;;;14.60;99.90;;;;;;4977440;28;20046;-82
2023/09/03 01:18:56;;;;;;;11.40;8.63;;;14.60;99.90;;;;;;4982940;28;20112;-82
2023/09/03 01:21:35;;;;;;;9.80;7.38;;;14.50;99.90;;;;;;4975872;28;20043;-83
2023/09/03 01:24:13;;;;;;;14.27;10.40;;;14.50;99.90;;;;;;4972365;28;20053;-83
2023/09/03 01:26:44;;;;;;;12.65;10.30;;;14.40;99.90;;;;;;4971935;28;20082;-83
2023/09/03 01:29:13;;;;;;;11.00;8.02;;;14.40;99.90;;;;;;4993908;28;20050;-83
2023/09/03 01:31:42;;;;;;;12.65;8.85;;;14.40;99.90;;;;;;4996940;28;20101;-83
2023/09/03 01:34:08;;;;;;;13.13;9.32;;;14.40;99.90;;;;;;4981959;28;20130;-83
2023/09/03 01:36:34;;;;;;;10.90;7.72;;;14.30;99.90;;;;;;4973043;28;20137;-82
2023/09/03 01:39:03;;;;;;;12.98;9.43;;;14.30;99.90;;;;;;4955032;28;20093;-83
2023/09/03 01:41:38;;;;;;;14.20;9.88;;;14.40;99.90;;;;;;4975190;28;20494;-83
2023/09/03 01:44:05;;;;;;;15.48;11.38;;;14.40;99.90;;;;;;4981821;28;20053;-82
2023/09/03 01:46:49;;;;;;;15.63;11.40;;;14.40;99.90;;;;;;4975298;28;20505;-82
2023/09/03 01:49:51;;;;;;;13.93;10.45;;;14.40;99.90;;;;;;4978009;28;20053;-82
2023/09/03 01:52:38;;;;;;;12.10;9.20;;;14.30;99.90;;;;;;4979065;28;20034;-82
2023/09/03 01:55:11;;;;;;;10.45;8.45;;;14.30;99.90;;;;;;4970184;28;20446;-83
2023/09/03 01:57:45;;;;;;;14.95;10.45;;;14.20;99.90;;;;;;4980266;28;20366;-83
2023/09/03 02:00:13;;;;;;;16.08;11.45;;;14.20;99.90;;;;;;4981682;28;20046;-83
2023/09/03 02:02:45;;;;;;;10.82;8.05;;;14.20;99.90;;;;;;4982221;28;20045;-82
2023/09/03 02:05:13;;;;;;;14.02;9.95;;;14.20;99.90;;;;;;4973516;28;20046;-82
2023/09/03 02:07:38;;;;;;;11.35;8.65;;;14.30;99.90;;;;;;4974025;28;20117;-82
2023/09/03 02:10:04;;;;;;;13.25;8.25;;;14.30;99.90;;;;;;4972919;28;20129;-82
2023/09/03 02:12:30;;;;;;;9.65;7.43;;;14.20;99.90;;;;;;4973686;28;20517;-83
2023/09/03 02:14:56;;;;;;;9.65;7.20;;;14.20;99.90;;;;;;4979280;28;20034;-83
2023/09/03 02:17:23;;;;;;;15.15;10.35;;;14.30;99.90;;;;;;4994716;28;20050;-82
2023/09/03 02:19:51;;;;;;;14.05;10.27;;;14.30;99.90;;;;;;4962104;28;20118;-83
2023/09/03 02:22:17;;;;;;;13.48;9.70;;;14.20;99.90;;;;;;4985487;28;20103;-82
2023/09/03 02:24:43;;;;;;;13.63;9.35;;;14.20;99.90;;;;;;4972786;28;20502;-82
2023/09/03 02:27:09;;;;;;;9.80;7.80;;;14.20;99.90;;;;;;4972663;28;20054;-83
2023/09/03 02:29:36;;;;;;;15.38;9.10;;;14.20;99.90;;;;;;4981431;28;20034;-83
2023/09/03 02:32:01;;;;;;;11.60;9.00;;;14.20;99.90;;;;;;4964683;28;20046;-82
2023/09/03 02:34:27;;;;;;;10.18;7.90;;;14.20;99.90;;;;;;4964619;28;20478;-82
2023/09/03 02:36:53;;;;;;;10.55;8.43;;;14.20;99.90;;;;;;4975279;28;20058;-83
2023/09/03 02:39:19;;;;;;;9.15;7.25;;;14.10;99.90;;;;;;4976524;28;20049;-83
2023/09/03 02:41:45;;;;;;;10.27;7.88;;;14.20;99.90;;;;;;4983408;28;20034;-82
2023/09/03 02:44:10;;;;;;;10.32;8.18;;;14.10;99.90;;;;;;4999949;28;20180;-82
2023/09/03 02:46:36;;;;;;;12.10;7.53;;;14.10;99.90;;;;;;4962838;28;20082;-83
2023/09/03 02:49:02;;;;;;;9.00;6.45;;;14.10;99.90;;;;;;4981350;28;20030;-82
2023/09/03 02:51:28;;;;;;;10.52;7.18;;;14.10;99.90;;;;;;4970867;28;20034;-83
2023/09/03 02:53:57;;;;;;;14.48;9.43;;;14.10;99.90;;;;;;4973284;28;20055;-83
2023/09/03 02:56:23;;;;;;;10.77;7.65;;;14.10;99.90;;;;;;4981361;28;20038;-82
2023/09/03 02:58:49;;;;;;;10.23;7.93;;;14.00;99.90;;;;;;4962727;28;20049;-82
2023/09/03 03:01:17;;;;;;;11.90;9.32;;;14.00;99.90;;;;;;4966987;28;20045;-82
2023/09/03 03:03:43;;;;;;;10.73;8.13;;;13.90;99.90;;;;;;4974332;28;20040;-82
2023/09/03 03:06:13;;;;;;;11.07;9.52;;;13.80;99.90;;;;;;4973602;28;20049;-83
2023/09/03 03:08:39;;;;;;;13.13;9.07;;;13.80;99.90;;;;;;4971259;28;20053;-83
2023/09/03 03:11:07;;;;;;;11.93;8.60;;;13.60;99.90;;;;;;4978733;28;20030;-82
2023/09/03 03:13:33;;;;;;;13.55;9.98;;;13.50;99.90;;;;;;4977058;28;20030;-82
2023/09/03 03:16:18;;;;;;;9.75;7.47;;;13.60;99.90;;;;;;4978394;28;20038;-83
2023/09/03 03:18:45;;;;;;;11.38;8.18;;;13.50;99.90;;;;;;4976986;28;20042;-83
2023/09/03 03:21:19;;;;;;;10.57;8.07;;;13.60;99.90;;;;;;4976599;28;20516;-82
2023/09/03 03:23:54;;;;;;;10.10;7.28;;;13.60;99.90;;;;;;4978808;28;20039;-83
2023/09/03 03:26:20;;;;;;;9.93;7.82;;;13.60;99.90;;;;;;4976002;28;20043;-82
2023/09/03 03:28:46;;;;;;;9.73;7.57;;;13.60;99.90;;;;;;4985199;28;20087;-83
2023/09/03 03:31:17;;;;;;;13.35;9.13;;;13.60;99.90;;;;;;4981672;28;20120;-82
2023/09/03 03:33:46;;;;;;;9.40;7.00;;;13.60;99.90;;;;;;4983032;28;20046;-82
2023/09/03 03:36:21;;;;;;;10.93;8.05;;;13.60;99.90;;;;;;4973806;28;20050;-82
2023/09/03 03:38:47;;;;;;;9.05;6.25;;;13.60;99.90;;;;;;4979401;28;20046;-83
2023/09/03 03:41:15;;;;;;;10.57;7.85;;;13.60;99.90;;;;;;4983268;28;20069;-83
2023/09/03 03:43:43;;;;;;;10.43;7.45;;;13.60;99.90;;;;;;4979505;28;20053;-83
2023/09/03 03:46:10;;;;;;;11.70;9.00;;;13.60;99.90;;;;;;4970752;28;20049;-82
2023/09/03 03:48:36;;;;;;;11.15;8.23;;;13.60;99.90;;;;;;4986454;28;20117;-83
2023/09/03 03:51:03;;;;;;;12.25;8.55;;;13.60;99.90;;;;;;4978234;28;20133;-83
2023/09/03 03:53:29;;;;;;;9.05;6.60;;;13.60;99.90;;;;;;4977278;28;20026;-82
2023/09/03 03:56:07;;;;;;;10.13;7.30;;;13.60;99.90;;;;;;4971752;28;20043;-82
2023/09/03 03:58:38;;;;;;;12.07;8.90;;;13.50;99.90;;;;;;4977250;28;20066;-83
2023/09/03 04:01:25;;;;;;;10.32;7.55;;;13.50;99.90;;;;;;4982958;28;20322;-83
2023/09/03 04:03:53;;;;;;;13.15;8.57;;;13.40;99.90;;;;;;4976194;28;20049;-83
2023/09/03 04:06:19;;;;;;;10.38;7.40;;;13.40;99.90;;;;;;4972775;28;20043;-82
2023/09/03 04:08:45;;;;;;;8.88;6.70;;;13.40;99.90;;;;;;4979716;28;20117;-82
2023/09/03 04:11:18;;;;;;;9.02;5.65;;;13.30;99.90;;;;;;4972024;28;20047;-82
2023/09/03 04:13:44;;;;;;;9.23;6.97;;;13.30;99.90;;;;;;4982410;28;20047;-82
2023/09/03 04:16:13;;;;;;;10.00;7.28;;;13.30;99.90;;;;;;4974461;28;20050;-82
2023/09/03 04:18:41;;;;;;;11.80;8.13;;;13.40;99.90;;;;;;4978691;28;20049;-82
2023/09/03 04:21:07;;;;;;;10.43;7.22;;;13.40;99.90;;;;;;4986391;28;20046;-83
2023/09/03 04:23:33;;;;;;;9.27;6.78;;;13.40;99.90;;;;;;4963848;28;20041;-82
2023/09/03 04:26:00;;;;;;;12.73;8.23;;;13.30;99.90;;;;;;4981777;28;20513;-83
2023/09/03 04:28:26;;;;;;;11.95;8.18;;;13.40;99.90;;;;;;4995018;28;20042;-83
2023/09/03 04:30:56;;;;;;;9.23;6.15;;;13.30;99.90;;;;;;4973687;28;20054;-83
2023/09/03 04:33:22;;;;;;;7.78;5.60;;;13.20;99.90;;;;;;4975286;28;20493;-82
2023/09/03 04:35:53;;;;;;;16.00;7.13;;;13.20;99.90;;;;;;4985419;28;20133;-83
2023/09/03 04:38:19;;;;;;;10.65;6.53;;;13.20;99.90;;;;;;4978354;28;20039;-83
2023/09/03 04:40:44;;;;;;;11.43;7.90;;;13.20;99.90;;;;;;4974039;28;20045;-82
2023/09/03 04:43:10;;;;;;;9.95;6.75;;;13.20;99.90;;;;;;4973293;28;20050;-83
2023/09/03 04:45:36;;;;;;;8.65;6.55;;;13.40;99.90;;;;;;4958296;28;20078;-83
2023/09/03 04:48:02;;;;;;;11.85;8.95;;;13.20;99.90;;;;;;4978213;28;20093;-83
2023/09/03 04:50:28;;;;;;;12.63;8.05;;;13.20;99.90;;;;;;4983299;28;20038;-83
2023/09/03 04:52:55;;;;;;;7.85;5.75;;;13.20;99.90;;;;;;4949512;28;20049;-82
2023/09/03 04:55:21;;;;;;;7.90;5.50;;;13.10;99.90;;;;;;4979639;28;20054;-83
2023/09/03 04:57:47;;;;;;;8.38;6.25;;;13.20;99.90;;;;;;4972802;28;20047;-83
2023/09/03 05:00:13;;;;;;;10.48;7.50;;;13.20;99.90;;;;;;4993924;28;20027;-83
2023/09/03 05:02:39;;;;;;;9.48;6.47;;;13.20;99.90;;;;;;4971984;28;20042;-83
2023/09/03 05:05:07;;;;;;;10.77;8.48;;;13.20;99.90;;;;;;4973933;28;20042;-83
2023/09/03 05:07:32;;;;;;;12.00;7.75;;;13.20;99.90;;;;;;4981228;28;20501;-83
2023/09/03 05:09:58;;;;;;;8.75;6.55;;;13.20;99.90;;;;;;4981009;28;20080;-83
2023/09/03 05:12:24;;;;;;;9.50;7.03;;;13.20;99.90;;;;;;4964086;28;20046;-83
2023/09/03 05:14:50;;;;;;;12.90;8.35;;;13.30;99.90;;;;;;4972538;28;20038;-83
2023/09/03 05:17:15;;;;;;;8.70;6.45;;;13.10;99.90;;;;;;4984123;28;20507;-83
2023/09/03 05:19:41;;;;;;;8.02;5.68;;;13.20;99.90;;;;;;4974841;28;20105;-83
2023/09/03 05:22:07;;;;;;;9.00;7.07;;;13.20;99.90;;;;;;4985204;28;20125;-83
2023/09/03 05:24:33;;;;;;;11.63;7.05;;;13.20;99.90;;;;;;4961078;28;20183;-83
2023/09/03 05:26:59;;;;;;;9.93;6.43;;;13.20;99.90;;;;;;4983566;28;20121;-83
2023/09/03 05:29:25;;;;;;;9.38;6.72;;;13.10;99.90;;;;;;4976613;28;20053;-82
2023/09/03 05:31:52;;;;;;;10.77;7.05;;;13.10;99.90;;;;;;4981184;28;20043;-83
2023/09/03 05:34:18;;;;;;;7.35;5.25;;;13.10;99.90;;;;;;4984091;28;20113;-83
2023/09/03 05:36:44;;;;;;;10.70;6.10;;;13.50;99.90;;;;;;4985291;28;20438;-82
2023/09/03 05:39:10;;;;;;;7.63;5.50;;;13.10;99.90;;;;;;4990929;28;20051;-83
2023/09/03 05:41:35;;;;;;;8.30;5.85;;;13.10;99.90;;;;;;4977938;28;20053;-83
2023/09/03 05:44:06;;;;;;;7.93;5.70;;;13.10;99.90;;;;;;4988877;28;20047;-83
2023/09/03 05:46:32;;;;;;;10.93;6.70;;;13.20;99.90;;;;;;4984308;28;20453;-83
2023/09/03 05:48:58;;;;;;;9.50;7.18;;;13.20;99.90;;;;;;4981994;28;20039;-84
2023/09/03 05:51:23;;;;;;;8.15;6.15;;;13.20;99.90;;;;;;4975566;28;20037;-83
2023/09/03 05:53:49;;;;;;;8.68;5.72;;;13.20;99.90;;;;;;4980207;28;20143;-83
2023/09/03 05:56:15;;;;;;;10.00;7.15;;;13.40;99.90;;;;;;4968845;28;20046;-83
2023/09/03 05:58:42;;;;;;;10.82;8.82;;;13.20;99.90;;;;;;4980773;28;20100;-82
2023/09/03 06:01:11;;;;;;;12.63;8.70;;;13.20;99.90;;;;;;4988525;28;20510;-84
2023/09/03 06:03:38;;;;;;;10.48;7.15;;;13.20;99.90;;;;;;4980587;28;20081;-82
2023/09/03 06:06:23;;;;;;;9.00;6.47;;;13.20;99.90;;;;;;4970359;28;20326;-81
2023/09/03 06:08:49;;;;;;;15.57;7.15;;;13.30;99.90;;;;;;4978461;28;20093;-81
2023/09/03 06:11:15;;;;;;;11.93;8.52;;;13.30;99.90;;;;;;4971518;28;20436;-81
2023/09/03 06:13:40;;;;;;;11.20;8.63;;;13.30;99.90;;;;;;4971222;28;20057;-81
2023/09/03 06:16:06;;;;;;;11.18;7.82;;;13.30;99.90;;;;;;4970406;28;20035;-81
2023/09/03 06:18:32;;;;;;;9.50;7.57;;;13.30;99.90;;;;;;4975572;28;20750;-80
2023/09/03 06:20:57;;;;;;;8.05;6.18;;;13.30;99.90;;;;;;4972482;28;20039;-80
2023/09/03 06:23:23;;;;;;;9.52;6.95;;;13.40;99.90;;;;;;4971614;28;20042;-79
2023/09/03 06:25:50;;;;;;;9.98;8.43;;;13.40;99.90;;;;;;4972428;28;20042;-81
2023/09/03 06:28:16;;;;;;;7.15;5.35;;;13.50;99.90;;;;;;4980848;28;20265;-80
2023/09/03 06:30:42;;;;;;;8.80;6.80;;;13.50;99.90;;;;;;4975805;28;20406;-80
2023/09/03 06:33:12;;;;;;;10.38;7.38;;;13.50;99.90;;;;;;4972152;28;20129;-79
2023/09/03 06:35:38;;;;;;;11.85;8.20;;;13.60;99.90;;;;;;4982522;28;20038;-80
2023/09/03 06:38:04;;;;;;;11.07;7.68;;;13.60;99.90;;;;;;4975909;28;20607;-81
2023/09/03 06:40:30;;;;;;;10.73;8.32;;;13.60;99.90;;;;;;4969446;28;20892;-81
2023/09/03 06:42:56;;;;;;;10.63;8.00;;;13.80;99.90;;;;;;4982433;28;20062;-80
2023/09/03 06:45:21;;;;;;;8.77;6.32;;;13.70;99.90;;;;;;4980254;28;20196;-80
2023/09/03 06:47:47;;;;;;;9.98;7.43;;;13.70;99.90;;;;;;4975977;28;20038;-80
2023/09/03 06:50:13;;;;;;;10.70;8.43;;;13.80;99.90;;;;;;4978259;28;20505;-80
2023/09/03 06:52:39;;;;;;;9.20;7.32;;;13.80;99.90;;;;;;4977145;28;20471;-80
2023/09/03 06:55:05;;;;;;;8.23;5.93;;;13.80;99.90;;;;;;4975271;28;20043;-80
2023/09/03 06:57:32;;;;;;;11.52;8.23;;;13.90;99.90;;;;;;4981240;28;20136;-80
2023/09/03 06:59:58;;;;;;;9.35;6.43;;;13.90;99.90;;;;;;4981712;28;20049;-80
2023/09/03 07:02:25;;;;;;;10.93;7.72;;;14.00;99.90;;;;;;4986808;28;20415;-80
2023/09/03 07:04:51;;;;;;;8.02;5.68;;;14.00;99.90;;;;;;4978635;28;20468;-80
2023/09/03 07:07:16;;;;;;;8.43;6.38;;;14.00;99.90;;;;;;4973511;28;20129;-80
2023/09/03 07:09:42;;;;;;;9.27;5.93;;;14.00;99.90;;;;;;4985877;28;20030;-80
2023/09/03 07:12:07;;;;;;;9.20;7.15;;;14.10;99.90;;;;;;4978127;28;20390;-80
2023/09/03 07:14:34;;;;;;;8.93;6.45;;;14.10;99.90;;;;;;4960652;28;20093;-80
2023/09/03 07:17:01;;;;;;;9.80;6.70;;;14.10;99.90;;;;;;4980632;28;20101;-80
2023/09/03 07:19:27;;;;;;;10.63;7.50;;;14.20;99.90;;;;;;4975771;28;20070;-80
2023/09/03 07:21:53;;;;;;;11.27;7.88;;;14.20;99.90;;;;;;4976163;28;20093;-80
2023/09/03 07:24:19;;;;;;;10.43;8.32;;;14.20;99.90;;;;;;4977401;28;20450;-80
2023/09/03 07:26:45;;;;;;;11.25;7.80;;;14.30;99.90;;;;;;4980950;28;20077;-80
2023/09/03 07:29:12;;;;;;;12.77;8.32;;;14.30;99.90;;;;;;4978249;28;20125;-80
2023/09/03 07:31:41;;;;;;;11.30;7.68;;;14.40;99.90;;;;;;4982052;28;20088;-80
2023/09/03 07:34:16;;;;;;;8.30;6.57;;;14.40;99.90;;;;;;4986000;28;20073;-80
2023/09/03 07:36:42;;;;;;;10.30;7.38;;;14.50;99.90;;;;;;4986272;28;20530;-80
2023/09/03 07:39:11;;;;;;;9.18;7.05;;;14.70;99.90;;;;;;4976618;28;20038;-80
2023/09/03 07:41:37;;;;;;;12.48;7.80;;;14.70;99.90;;;;;;4991887;28;20434;-80
2023/09/03 07:44:04;;;;;;;8.60;7.05;;;14.80;99.90;;;;;;4979214;28;20269;-80
2023/09/03 07:46:30;;;;;;;10.13;7.72;;;14.90;99.90;;;;;;4977794;28;20096;-80
2023/09/03 07:48:56;;;;;;;10.05;7.18;;;15.00;99.90;;;;;;4974221;28;20106;-80
2023/09/03 07:51:22;;;;;;;9.27;7.68;;;15.10;99.90;;;;;;4973234;28;20043;-80
2023/09/03 07:53:48;;;;;;;9.70;6.88;;;15.10;99.90;;;;;;4983760;28;20066;-80
2023/09/03 07:56:16;;;;;;;10.35;7.20;;;15.20;99.90;;;;;;4983471;28;20043;-80
2023/09/03 07:58:42;;;;;;;9.95;6.80;;;15.30;99.90;;;;;;4981075;28;20042;-80
2023/09/03 08:01:16;;;;;;;10.15;6.15;;;15.30;99.90;;;;;;4989765;28;20034;-81
2023/09/03 08:03:45;;;;;;;9.90;6.10;;;15.40;99.90;;;;;;4982600;28;20034;-80
2023/09/03 08:06:13;;;;;;;7.88;5.75;;;15.50;99.90;;;;;;4982879;28;20041;-80
2023/09/03 08:08:39;;;;;;;9.18;6.28;;;15.60;99.90;;;;;;4973167;28;20046;-80
2023/09/03 08:11:05;;;;;;;8.93;5.13;;;15.60;99.90;;;;;;4978814;28;20043;-79
2023/09/03 08:13:31;;;;;;;7.05;4.88;;;15.70;99.90;;;;;;4981315;28;20034;-79
2023/09/03 08:15:56;;;;;;;7.70;4.63;;;15.70;99.90;;;;;;4983994;28;20153;-78
2023/09/03 08:18:23;;;;;;;6.40;4.35;;;15.80;99.90;;;;;;4983954;28;20030;-79
2023/09/03 08:20:49;;;;;;;7.53;3.45;;;15.80;99.90;;;;;;4984211;28;20562;-79
2023/09/03 08:23:15;;;;;;;6.85;3.53;;;15.90;99.90;;;;;;4970047;28;20050;-79
2023/09/03 08:25:41;;;;;;;6.93;2.78;;;16.00;99.90;;;;;;4977528;28;20406;-81
2023/09/03 08:28:08;;;;;;;6.95;2.90;;;16.00;99.90;;;;;;4975602;28;20035;-79
2023/09/03 08:30:34;;;;;;;7.30;2.90;;;16.10;99.90;;;;;;4989224;28;20117;-78
2023/09/03 08:33:00;;;;;;;4.72;3.00;;;16.20;99.90;;;;;;4959704;28;20046;-78
2023/09/03 08:35:27;;;;;;;6.32;3.22;;;16.30;99.90;;;;;;4989023;28;20050;-78
2023/09/03 08:37:53;;;;;;;6.32;2.60;;;16.40;99.90;;;;;;4978961;28;20529;-79
2023/09/03 08:40:19;;;;;;;6.20;2.90;;;16.40;99.90;;;;;;4982629;28;20035;-80
2023/09/03 08:42:49;;;;;;;7.82;2.33;;;16.60;99.90;;;;;;4983936;28;20104;-80
2023/09/03 08:45:17;;;;;;;5.68;2.25;;;16.70;99.90;;;;;;4977035;28;20043;-80
2023/09/03 08:47:44;;;;;;;4.50;2.33;;;16.70;99.90;;;;;;4985498;28;20121;-79
2023/09/03 08:50:11;;;;;;;5.32;2.45;;;16.80;99.90;;;;;;4980117;28;20043;-79
2023/09/03 08:52:38;;;;;;;4.20;1.90;;;16.90;99.90;;;;;;4979414;28;20053;-79
2023/09/03 08:55:05;;;;;;;6.38;2.70;;;17.00;99.90;;;;;;4984247;28;20133;-80
2023/09/03 08:57:34;;;;;;;5.05;2.22;;;17.10;99.90;;;;;;4981374;28;20164;-80
2023/09/03 09:00:10;;;;;;;4.70;2.42;;;17.20;99.90;;;;;;4984798;28;20109;-80
2023/09/03 09:02:37;;;;;;;4.43;2.20;;;17.30;99.90;;;;;;4985887;28;20043;-80
2023/09/03 09:05:09;;;;;;;6.00;2.42;;;17.40;99.90;;;;;;4979733;28;20084;-80
2023/09/03 09:07:34;;;;;;;6.45;2.30;;;17.50;99.90;;;;;;4982456;28;20050;-79
2023/09/03 09:10:06;;;;;;;3.78;1.73;;;17.60;99.90;;;;;;4978880;28;20042;-79
2023/09/03 09:12:34;;;;;;;5.50;1.58;;;17.80;99.90;;;;;;4980868;28;20042;-79
2023/09/03 09:15:05;;;;;;;3.90;1.60;;;18.00;99.90;;;;;;4986283;28;20097;-80
2023/09/03 09:17:37;;;;;;;5.15;2.00;;;18.10;99.90;;;;;;4980111;28;20039;-80
2023/09/03 09:20:07;;;;;;;5.55;2.00;;;18.20;99.90;;;;;;4982164;28;20303;-79
2023/09/03 09:22:44;;;;;;;4.20;1.98;;;18.30;99.90;;;;;;4979510;28;20058;-78
2023/09/03 09:25:18;;;;;;;4.20;1.67;;;18.40;99.90;;;;;;4975573;28;20078;-79
2023/09/03 09:27:44;;;;;;;5.27;1.60;;;18.50;99.90;;;;;;4987330;28;20474;-80
2023/09/03 09:30:12;;;;;;;3.40;1.45;;;18.70;99.90;;;;;;4978473;28;20045;-81
2023/09/03 09:32:40;;;;;;;3.22;1.45;;;18.70;99.90;;;;;;4982921;28;20045;-80
2023/09/03 09:35:06;;;;;;;3.10;1.60;;;18.80;99.90;;;;;;4981847;28;20042;-80
2023/09/03 09:37:39;;;;;;;3.67;1.40;;;18.90;99.90;;;;;;4985717;28;20050;-80
2023/09/03 09:40:06;;;;;;;2.65;1.48;;;18.90;99.90;;;;;;4979485;28;20045;-80
2023/09/03 09:42:32;;;;;;;3.20;1.50;;;19.00;99.90;;;;;;4985590;28;20997;-80
2023/09/03 09:44:59;;;;;;;5.88;1.98;;;19.10;99.90;;;;;;4982580;28;20061;-80
2023/09/03 09:47:26;;;;;;;3.67;1.73;;;19.20;99.90;;;;;;4987354;28;20540;-80
2023/09/03 09:49:52;;;;;;;3.97;1.50;;;19.30;99.90;;;;;;4979506;28;20109;-80
2023/09/03 09:52:19;;;;;;;3.85;1.38;;;19.40;99.90;;;;;;4981960;28;20717;-80
2023/09/03 09:54:46;;;;;;;4.97;1.40;;;19.50;99.90;;;;;;4985065;28;20046;-81
2023/09/03 09:57:16;;;;;;;2.83;1.50;;;19.60;99.90;;;;;;4984822;28;20042;-80
2023/09/03 09:59:43;;;;;;;4.07;1.50;;;19.60;99.90;;;;;;4979939;28;20035;-80
2023/09/03 10:02:12;;;;;;;4.07;1.70;;;19.70;99.90;;;;;;4977160;28;20482;-81
2023/09/03 10:04:43;;;;;;;4.72;1.52;;;19.80;99.90;;;;;;4976661;28;20118;-80
2023/09/03 10:07:09;;;;;;;3.95;1.50;;;19.80;99.90;;;;;;4977515;28;20457;-80
2023/09/03 10:09:35;;;;;;;2.60;1.33;;;19.90;99.90;;;;;;4982422;28;20038;-81
2023/09/03 10:12:05;;;;;;;2.80;1.30;;;20.00;99.90;;;;;;4981268;28;20391;-80
2023/09/03 10:14:31;;;;;;;4.55;1.58;;;20.00;99.90;;;;;;4982075;28;20117;-81
2023/09/03 10:17:02;;;;;;;3.05;1.70;;;20.20;99.90;;;;;;4980664;28;20137;-81
2023/09/03 10:19:40;;;;;;;2.83;1.10;;;20.30;99.90;;;;;;4984012;28;20049;-82
2023/09/03 10:22:09;;;;;;;2.30;1.25;;;20.40;99.90;;;;;;4972348;28;20046;-81
2023/09/03 10:24:36;;;;;;;2.97;1.40;;;20.50;99.90;;;;;;4978277;28;20042;-81
2023/09/03 10:27:09;;;;;;;2.83;1.38;;;20.60;99.90;;;;;;4982127;28;20093;-81
2023/09/03 10:29:36;;;;;;;5.03;1.20;;;20.70;99.90;;;;;;4979447;28;20062;-80
2023/09/03 10:32:03;;;;;;;5.28;1.42;;;20.80;99.90;;;;;;4980878;28;20054;-80
2023/09/03 10:34:30;;;;;;;3.25;1.38;;;20.90;99.90;;;;;;4964279;28;20049;-81
2023/09/03 10:37:06;;;;;;;5.32;1.58;;;21.00;99.90;;;;;;4985864;28;20050;-81
2023/09/03 10:39:33;;;;;;;3.45;1.10;;;21.10;99.90;;;;;;4979297;28;20034;-81
2023/09/03 10:42:26;;;;;;;3.38;1.25;;;21.20;99.90;;;;;;4960962;28;20043;-81
2023/09/03 10:44:59;;;;;;;3.22;1.15;;;21.30;99.90;;;;;;4973953;28;20053;-80
2023/09/03 10:47:25;;;;;;;5.55;1.58;;;21.40;99.90;;;;;;4973688;28;20050;-79
2023/09/03 10:49:52;;;;;;;2.90;1.10;;;21.50;99.90;;;;;;4976061;28;20093;-79
2023/09/03 10:52:39;;;;;;;3.53;1.23;;;21.50;99.90;;;;;;4980662;28;20134;-79
2023/09/03 10:55:16;;;;;;;2.42;0.80;;;21.70;99.90;;;;;;4988218;28;20053;-79
2023/09/03 10:57:44;;;;;;;2.90;1.15;;;21.70;99.90;;;;;;4982097;28;20046;-78
2023/09/03 11:00:16;;;;;;;4.15;1.27;;;21.80;99.90;;;;;;4985035;28;20074;-78
2023/09/03 11:02:42;;;;;;;3.20;1.20;;;21.90;99.90;;;;;;4963777;28;20104;-80
2023/09/03 11:05:23;;;;;;;4.55;1.40;;;21.90;99.90;;;;;;4983311;28;20034;-79
2023/09/03 11:08:09;;;;;;;3.10;1.10;;;21.90;99.90;;;;;;4975663;28;20051;-80
2023/09/03 11:10:35;;;;;;;3.50;1.00;;;22.00;99.90;;;;;;4979345;28;20085;-79
2023/09/03 11:13:04;;;;;;;2.33;1.00;;;22.00;99.90;;;;;;4982794;28;20074;-79
2023/09/03 11:15:30;;;;;;;2.92;0.88;;;22.00;99.90;;;;;;4979227;28;20082;-79
2023/09/03 11:17:56;;;;;;;3.75;1.10;;;22.10;99.90;;;;;;4982995;28;20093;-79
2023/09/03 11:20:36;;;;;;;2.00;1.02;;;22.10;99.90;;;;;;4978432;28;20065;-79
2023/09/03 11:23:02;;;;;;;1.80;1.02;;;22.20;99.90;;;;;;4976616;28;20494;-79
2023/09/03 11:25:36;;;;;;;6.68;1.20;;;22.20;99.90;;;;;;4978392;28;20027;-79
2023/09/03 11:28:03;;;;;;;5.13;1.40;;;22.30;99.90;;;;;;4983467;28;20098;-79
2023/09/03 11:30:29;;;;;;;3.17;1.30;;;22.40;99.90;;;;;;4976490;28;20085;-79
2023/09/03 11:32:56;;;;;;;3.63;1.63;;;22.50;99.90;;;;;;4981444;28;20042;-80
2023/09/03 11:35:22;;;;;;;2.55;1.00;;;22.70;99.90;;;;;;4979463;28;20100;-79
2023/09/03 11:37:49;;;;;;;2.83;1.00;;;22.70;99.90;;;;;;4976268;28;20262;-80
2023/09/03 11:40:16;;;;;;;2.88;1.08;;;22.80;99.90;;;;;;4987398;28;20061;-81
2023/09/03 11:42:49;;;;;;;1.85;0.80;;;22.90;99.90;;;;;;4991411;28;20034;-81
2023/09/03 11:45:15;;;;;;;3.28;1.00;;;23.00;99.90;;;;;;4993299;28;20043;-81
2023/09/03 11:47:49;;;;;;;2.30;1.05;;;23.10;99.90;;;;;;4994425;28;20121;-81
2023/09/03 11:50:16;;;;;;;3.33;0.88;;;23.10;99.90;;;;;;4999177;28;20038;-80
2023/09/03 11:53:10;;;;;;;2.53;0.80;;;23.10;99.90;;;;;;4992555;28;20026;-81
2023/09/03 11:55:41;;;;;;;3.33;1.00;;;23.20;99.90;;;;;;4993244;28;20563;-81
2023/09/03 11:58:10;;;;;;;2.92;1.00;;;23.20;99.90;;;;;;4988003;28;20043;-81
2023/09/03 12:00:36;;;;;;;3.13;0.80;;;23.30;99.90;;;;;;4986602;28;20046;-81
2023/09/03 12:03:03;;;;;;;2.00;0.88;;;23.30;99.90;;;;;;4987551;28;20065;-81
2023/09/03 12:05:29;;;;;;;2.00;0.80;;;23.50;99.90;;;;;;4974939;28;20050;-81
2023/09/03 12:08:02;;;;;;;1.63;0.88;;;23.50;99.90;;;;;;4971419;28;20046;-82
2023/09/03 12:10:29;;;;;;;2.35;0.95;;;23.60;99.90;;;;;;4979068;28;20050;-81
2023/09/03 12:12:55;;;;;;;1.80;0.60;;;23.60;99.90;;;;;;4974308;28;20053;-81
2023/09/03 12:15:22;;;;;;;1.88;0.77;;;23.60;99.90;;;;;;4981571;28;20489;-81
2023/09/03 12:17:48;;;;;;;2.47;1.00;;;23.70;99.90;;;;;;4962110;28;20039;-81
2023/09/03 12:20:34;;;;;;;4.57;0.90;;;23.70;99.90;;;;;;4976969;28;20053;-81
2023/09/03 12:23:29;;;;;;;4.38;1.15;;;23.70;99.90;;;;;;4982729;28;20042;-81
2023/09/03 12:25:55;;;;;;;2.10;1.05;;;23.80;99.90;;;;;;4951425;28;20088;-82
2023/09/03 12:28:54;;;;;;;3.22;1.05;;;23.80;99.90;;;;;;4987659;28;20061;-81
2023/09/03 12:31:21;;;;;;;2.65;0.80;;;23.90;99.90;;;;;;4923493;28;20058;-81
2023/09/03 12:33:50;;;;;;;5.30;1.10;;;23.90;99.90;;;;;;4960417;28;20042;-81
2023/09/03 12:36:19;;;;;;;2.75;0.82;;;24.00;99.90;;;;;;4961414;28;21045;-81
2023/09/03 12:38:49;;;;;;;3.35;1.10;;;24.10;99.90;;;;;;4976047;28;20142;-82
2023/09/03 12:41:15;;;;;;;3.03;1.10;;;24.10;99.90;;;;;;4981409;28;20437;-81
2023/09/03 12:43:41;;;;;;;3.95;0.77;;;24.10;99.90;;;;;;4984620;28;20084;-81
2023/09/03 12:46:08;;;;;;;2.50;0.80;;;24.30;99.90;;;;;;4974363;28;20051;-81
2023/09/03 12:48:33;;;;;;;2.72;0.95;;;24.30;99.90;;;;;;4988998;28;20049;-81